sensor_id;sensor_type;location;lat;lon;timestamp;P1;durP1;ratioP1;P2;durP2;ratioP2
21235;SDS011;10775;42.678;26.324;2023-07-31T00:02:15;2.05;;;1.60;;
21235;SDS011;10775;42.678;26.324;2023-07-31T00:04:40;2.10;;;1.48;;
21235;SDS011;10775;42.678;26.324;2023-07-31T00:07:06;2.42;;;1.50;;
21235;SDS011;10775;42.678;26.324;2023-07-31T00:09:32;2.30;;;1.63;;
21235;SDS011;10775;42.678;26.324;2023-07-31T00:11:58;1.63;;;1.45;;
21235;SDS011;10775;42.678;26.324;2023-07-31T00:14:23;1.40;;;1.30;;
21235;SDS011;10775;42.678;26.324;2023-07-31T00:16:49;2.13;;;1.50;;
21235;SDS011;10775;42.678;26.324;2023-07-31T00:19:14;1.60;;;1.40;;
21235;SDS011;10775;42.678;26.324;2023-07-31T00:21:40;1.88;;;1.52;;
21235;SDS011;10775;42.678;26.324;2023-07-31T00:24:05;1.30;;;1.20;;
21235;SDS011;10775;42.678;26.324;2023-07-31T00:26:30;1.90;;;1.40;;
21235;SDS011;10775;42.678;26.324;2023-07-31T00:28:56;2.00;;;1.80;;
21235;SDS011;10775;42.678;26.324;2023-07-31T00:31:21;1.40;;;1.30;;
21235;SDS011;10775;42.678;26.324;2023-07-31T00:33:47;1.40;;;1.30;;
21235;SDS011;10775;42.678;26.324;2023-07-31T00:36:12;2.45;;;1.40;;
21235;SDS011;10775;42.678;26.324;2023-07-31T00:38:38;1.88;;;1.48;;
21235;SDS011;10775;42.678;26.324;2023-07-31T00:41:03;1.65;;;1.55;;
21235;SDS011;10775;42.678;26.324;2023-07-31T00:43:28;1.58;;;1.40;;
21235;SDS011;10775;42.678;26.324;2023-07-31T00:45:54;2.63;;;1.60;;
21235;SDS011;10775;42.678;26.324;2023-07-31T00:48:20;1.50;;;1.40;;
21235;SDS011;10775;42.678;26.324;2023-07-31T00:50:46;2.22;;;1.50;;
21235;SDS011;10775;42.678;26.324;2023-07-31T00:53:12;1.75;;;1.65;;
21235;SDS011;10775;42.678;26.324;2023-07-31T00:55:38;1.50;;;1.40;;
21235;SDS011;10775;42.678;26.324;2023-07-31T00:58:04;2.03;;;1.48;;
21235;SDS011;10775;42.678;26.324;2023-07-31T01:00:29;2.03;;;1.30;;
21235;SDS011;10775;42.678;26.324;2023-07-31T01:02:55;1.50;;;1.40;;
21235;SDS011;10775;42.678;26.324;2023-07-31T01:05:23;1.60;;;1.40;;
21235;SDS011;10775;42.678;26.324;2023-07-31T01:08:08;1.60;;;1.30;;
21235;SDS011;10775;42.678;26.324;2023-07-31T01:10:56;1.65;;;1.40;;
21235;SDS011;10775;42.678;26.324;2023-07-31T01:13:27;1.40;;;1.30;;
21235;SDS011;10775;42.678;26.324;2023-07-31T01:15:54;10.70;;;7.43;;
21235;SDS011;10775;42.678;26.324;2023-07-31T01:18:19;8.52;;;6.55;;
21235;SDS011;10775;42.678;26.324;2023-07-31T01:20:46;5.13;;;4.32;;
21235;SDS011;10775;42.678;26.324;2023-07-31T01:25:59;8.43;;;6.25;;
21235;SDS011;10775;42.678;26.324;2023-07-31T01:31:15;8.93;;;7.25;;
21235;SDS011;10775;42.678;26.324;2023-07-31T01:33:45;5.53;;;4.95;;
21235;SDS011;10775;42.678;26.324;2023-07-31T01:36:11;3.20;;;2.90;;
21235;SDS011;10775;42.678;26.324;2023-07-31T01:38:37;4.93;;;4.40;;
21235;SDS011;10775;42.678;26.324;2023-07-31T01:41:02;7.85;;;6.63;;
21235;SDS011;10775;42.678;26.324;2023-07-31T01:43:27;6.78;;;6.18;;
21235;SDS011;10775;42.678;26.324;2023-07-31T01:45:53;5.82;;;5.30;;
21235;SDS011;10775;42.678;26.324;2023-07-31T01:48:19;8.25;;;7.45;;
21235;SDS011;10775;42.678;26.324;2023-07-31T01:50:44;7.78;;;7.07;;
21235;SDS011;10775;42.678;26.324;2023-07-31T01:53:09;6.70;;;6.10;;
21235;SDS011;10775;42.678;26.324;2023-07-31T01:55:37;4.88;;;4.47;;
21235;SDS011;10775;42.678;26.324;2023-07-31T01:58:02;9.40;;;8.50;;
21235;SDS011;10775;42.678;26.324;2023-07-31T02:00:28;8.85;;;8.05;;
21235;SDS011;10775;42.678;26.324;2023-07-31T02:02:53;5.38;;;4.88;;
21235;SDS011;10775;42.678;26.324;2023-07-31T02:05:18;5.72;;;4.85;;
21235;SDS011;10775;42.678;26.324;2023-07-31T02:07:44;6.22;;;5.72;;
21235;SDS011;10775;42.678;26.324;2023-07-31T02:10:09;8.32;;;7.47;;
21235;SDS011;10775;42.678;26.324;2023-07-31T02:12:35;3.40;;;3.10;;
21235;SDS011;10775;42.678;26.324;2023-07-31T02:15:00;2.85;;;2.58;;
21235;SDS011;10775;42.678;26.324;2023-07-31T02:17:26;1.77;;;1.67;;
21235;SDS011;10775;42.678;26.324;2023-07-31T02:19:51;3.22;;;2.05;;
21235;SDS011;10775;42.678;26.324;2023-07-31T02:22:17;2.20;;;1.98;;
21235;SDS011;10775;42.678;26.324;2023-07-31T02:24:43;2.35;;;2.15;;
21235;SDS011;10775;42.678;26.324;2023-07-31T02:27:08;3.80;;;2.20;;
21235;SDS011;10775;42.678;26.324;2023-07-31T02:29:33;2.90;;;2.60;;
21235;SDS011;10775;42.678;26.324;2023-07-31T02:31:59;2.65;;;2.45;;
21235;SDS011;10775;42.678;26.324;2023-07-31T02:34:24;3.20;;;2.22;;
21235;SDS011;10775;42.678;26.324;2023-07-31T02:36:50;3.08;;;2.15;;
21235;SDS011;10775;42.678;26.324;2023-07-31T02:39:15;2.47;;;2.28;;
21235;SDS011;10775;42.678;26.324;2023-07-31T02:41:41;4.05;;;1.70;;
21235;SDS011;10775;42.678;26.324;2023-07-31T02:44:06;2.72;;;2.10;;
21235;SDS011;10775;42.678;26.324;2023-07-31T02:46:32;2.40;;;2.20;;
21235;SDS011;10775;42.678;26.324;2023-07-31T02:48:57;2.95;;;2.40;;
21235;SDS011;10775;42.678;26.324;2023-07-31T02:51:22;2.45;;;2.20;;
21235;SDS011;10775;42.678;26.324;2023-07-31T02:53:48;2.55;;;2.35;;
21235;SDS011;10775;42.678;26.324;2023-07-31T02:56:14;2.55;;;2.25;;
21235;SDS011;10775;42.678;26.324;2023-07-31T02:58:40;2.95;;;2.28;;
21235;SDS011;10775;42.678;26.324;2023-07-31T03:01:05;2.67;;;2.22;;
21235;SDS011;10775;42.678;26.324;2023-07-31T03:03:31;2.17;;;1.95;;
21235;SDS011;10775;42.678;26.324;2023-07-31T03:05:56;2.03;;;1.88;;
21235;SDS011;10775;42.678;26.324;2023-07-31T03:08:21;2.30;;;2.10;;
21235;SDS011;10775;42.678;26.324;2023-07-31T03:10:47;2.42;;;2.15;;
21235;SDS011;10775;42.678;26.324;2023-07-31T03:13:12;3.13;;;2.13;;
21235;SDS011;10775;42.678;26.324;2023-07-31T03:15:38;2.40;;;2.20;;
21235;SDS011;10775;42.678;26.324;2023-07-31T03:18:04;2.22;;;2.03;;
21235;SDS011;10775;42.678;26.324;2023-07-31T03:20:30;3.42;;;2.28;;
21235;SDS011;10775;42.678;26.324;2023-07-31T03:22:55;3.42;;;2.15;;
21235;SDS011;10775;42.678;26.324;2023-07-31T03:25:21;2.30;;;2.10;;
21235;SDS011;10775;42.678;26.324;2023-07-31T03:27:46;2.85;;;2.00;;
21235;SDS011;10775;42.678;26.324;2023-07-31T03:30:11;2.40;;;2.20;;
21235;SDS011;10775;42.678;26.324;2023-07-31T03:32:37;2.20;;;2.00;;
21235;SDS011;10775;42.678;26.324;2023-07-31T03:35:02;3.30;;;2.10;;
21235;SDS011;10775;42.678;26.324;2023-07-31T03:37:28;2.40;;;2.05;;
21235;SDS011;10775;42.678;26.324;2023-07-31T03:39:54;2.75;;;2.20;;
21235;SDS011;10775;42.678;26.324;2023-07-31T03:42:19;2.33;;;2.13;;
21235;SDS011;10775;42.678;26.324;2023-07-31T03:44:45;2.72;;;2.00;;
21235;SDS011;10775;42.678;26.324;2023-07-31T03:47:10;2.38;;;2.10;;
21235;SDS011;10775;42.678;26.324;2023-07-31T03:49:36;3.90;;;1.92;;
21235;SDS011;10775;42.678;26.324;2023-07-31T03:52:01;3.63;;;2.25;;
21235;SDS011;10775;42.678;26.324;2023-07-31T03:54:27;2.17;;;1.98;;
21235;SDS011;10775;42.678;26.324;2023-07-31T03:56:52;2.33;;;2.13;;
21235;SDS011;10775;42.678;26.324;2023-07-31T03:59:17;3.88;;;2.08;;
21235;SDS011;10775;42.678;26.324;2023-07-31T04:01:43;3.83;;;2.17;;
21235;SDS011;10775;42.678;26.324;2023-07-31T04:04:08;4.63;;;2.40;;
21235;SDS011;10775;42.678;26.324;2023-07-31T04:06:34;2.42;;;2.22;;
21235;SDS011;10775;42.678;26.324;2023-07-31T04:08:59;8.98;;;4.20;;
21235;SDS011;10775;42.678;26.324;2023-07-31T04:11:25;3.58;;;3.25;;
21235;SDS011;10775;42.678;26.324;2023-07-31T04:13:50;2.70;;;2.22;;
21235;SDS011;10775;42.678;26.324;2023-07-31T04:16:15;5.00;;;2.40;;
21235;SDS011;10775;42.678;26.324;2023-07-31T04:18:41;4.13;;;2.22;;
21235;SDS011;10775;42.678;26.324;2023-07-31T04:21:06;3.17;;;2.30;;
21235;SDS011;10775;42.678;26.324;2023-07-31T04:23:32;2.20;;;1.95;;
21235;SDS011;10775;42.678;26.324;2023-07-31T04:25:57;2.10;;;1.90;;
21235;SDS011;10775;42.678;26.324;2023-07-31T04:28:22;4.28;;;2.15;;
21235;SDS011;10775;42.678;26.324;2023-07-31T04:30:48;2.42;;;2.08;;
21235;SDS011;10775;42.678;26.324;2023-07-31T04:33:13;4.07;;;1.85;;
21235;SDS011;10775;42.678;26.324;2023-07-31T04:35:39;3.17;;;2.20;;
21235;SDS011;10775;42.678;26.324;2023-07-31T04:38:04;2.65;;;2.15;;
21235;SDS011;10775;42.678;26.324;2023-07-31T04:40:30;3.80;;;2.25;;
21235;SDS011;10775;42.678;26.324;2023-07-31T04:42:55;3.78;;;2.17;;
21235;SDS011;10775;42.678;26.324;2023-07-31T04:45:21;2.30;;;2.00;;
21235;SDS011;10775;42.678;26.324;2023-07-31T04:47:46;3.85;;;2.58;;
21235;SDS011;10775;42.678;26.324;2023-07-31T04:50:12;3.03;;;2.67;;
21235;SDS011;10775;42.678;26.324;2023-07-31T04:52:37;3.15;;;2.30;;
21235;SDS011;10775;42.678;26.324;2023-07-31T04:55:03;3.88;;;2.70;;
21235;SDS011;10775;42.678;26.324;2023-07-31T04:57:28;2.70;;;2.45;;
21235;SDS011;10775;42.678;26.324;2023-07-31T04:59:54;4.00;;;2.75;;
21235;SDS011;10775;42.678;26.324;2023-07-31T05:02:19;3.78;;;2.60;;
21235;SDS011;10775;42.678;26.324;2023-07-31T05:04:45;4.35;;;2.47;;
21235;SDS011;10775;42.678;26.324;2023-07-31T05:07:10;3.05;;;2.58;;
21235;SDS011;10775;42.678;26.324;2023-07-31T05:09:35;6.38;;;2.60;;
21235;SDS011;10775;42.678;26.324;2023-07-31T05:12:01;4.45;;;2.22;;
21235;SDS011;10775;42.678;26.324;2023-07-31T05:14:26;4.38;;;2.47;;
21235;SDS011;10775;42.678;26.324;2023-07-31T05:16:52;4.18;;;2.50;;
21235;SDS011;10775;42.678;26.324;2023-07-31T05:19:17;3.28;;;2.58;;
21235;SDS011;10775;42.678;26.324;2023-07-31T05:21:43;2.80;;;2.30;;
21235;SDS011;10775;42.678;26.324;2023-07-31T05:24:09;3.08;;;2.50;;
21235;SDS011;10775;42.678;26.324;2023-07-31T05:26:35;3.33;;;2.45;;
21235;SDS011;10775;42.678;26.324;2023-07-31T05:29:01;4.55;;;2.33;;
21235;SDS011;10775;42.678;26.324;2023-07-31T05:31:26;2.65;;;2.13;;
21235;SDS011;10775;42.678;26.324;2023-07-31T05:33:51;2.80;;;2.10;;
21235;SDS011;10775;42.678;26.324;2023-07-31T05:36:17;3.38;;;2.63;;
21235;SDS011;10775;42.678;26.324;2023-07-31T05:38:42;4.65;;;2.28;;
21235;SDS011;10775;42.678;26.324;2023-07-31T05:41:13;19.83;;;3.95;;
21235;SDS011;10775;42.678;26.324;2023-07-31T05:43:39;18.80;;;4.03;;
21235;SDS011;10775;42.678;26.324;2023-07-31T05:46:04;10.02;;;4.10;;
21235;SDS011;10775;42.678;26.324;2023-07-31T05:48:31;10.52;;;3.80;;
21235;SDS011;10775;42.678;26.324;2023-07-31T05:50:59;7.38;;;3.75;;
21235;SDS011;10775;42.678;26.324;2023-07-31T05:53:24;9.48;;;4.10;;
21235;SDS011;10775;42.678;26.324;2023-07-31T05:55:49;8.45;;;4.30;;
21235;SDS011;10775;42.678;26.324;2023-07-31T05:58:15;6.45;;;3.95;;
21235;SDS011;10775;42.678;26.324;2023-07-31T06:00:40;6.88;;;4.00;;
21235;SDS011;10775;42.678;26.324;2023-07-31T06:03:06;7.80;;;3.80;;
21235;SDS011;10775;42.678;26.324;2023-07-31T06:05:32;5.80;;;4.43;;
21235;SDS011;10775;42.678;26.324;2023-07-31T06:07:57;5.93;;;3.85;;
21235;SDS011;10775;42.678;26.324;2023-07-31T06:10:23;6.90;;;3.95;;
21235;SDS011;10775;42.678;26.324;2023-07-31T06:12:48;7.63;;;3.92;;
21235;SDS011;10775;42.678;26.324;2023-07-31T06:15:14;6.80;;;3.90;;
21235;SDS011;10775;42.678;26.324;2023-07-31T06:17:39;9.38;;;4.10;;
21235;SDS011;10775;42.678;26.324;2023-07-31T06:20:06;11.77;;;4.30;;
21235;SDS011;10775;42.678;26.324;2023-07-31T06:22:32;11.43;;;4.22;;
21235;SDS011;10775;42.678;26.324;2023-07-31T06:24:57;7.22;;;4.40;;
21235;SDS011;10775;42.678;26.324;2023-07-31T06:27:23;6.75;;;3.78;;
21235;SDS011;10775;42.678;26.324;2023-07-31T06:29:48;9.38;;;4.53;;
21235;SDS011;10775;42.678;26.324;2023-07-31T06:32:14;11.55;;;4.93;;
21235;SDS011;10775;42.678;26.324;2023-07-31T06:34:39;7.40;;;4.47;;
21235;SDS011;10775;42.678;26.324;2023-07-31T06:37:04;7.10;;;4.35;;
21235;SDS011;10775;42.678;26.324;2023-07-31T06:39:30;6.68;;;4.20;;
21235;SDS011;10775;42.678;26.324;2023-07-31T06:41:55;17.50;;;4.38;;
21235;SDS011;10775;42.678;26.324;2023-07-31T06:44:21;8.13;;;4.70;;
21235;SDS011;10775;42.678;26.324;2023-07-31T06:46:46;6.85;;;4.00;;
21235;SDS011;10775;42.678;26.324;2023-07-31T06:49:12;6.85;;;4.13;;
21235;SDS011;10775;42.678;26.324;2023-07-31T06:51:37;9.07;;;4.53;;
21235;SDS011;10775;42.678;26.324;2023-07-31T06:54:03;13.73;;;5.88;;
21235;SDS011;10775;42.678;26.324;2023-07-31T06:56:29;5.65;;;4.10;;
21235;SDS011;10775;42.678;26.324;2023-07-31T06:58:55;9.10;;;4.75;;
21235;SDS011;10775;42.678;26.324;2023-07-31T07:01:20;9.30;;;4.95;;
21235;SDS011;10775;42.678;26.324;2023-07-31T07:03:46;11.80;;;5.63;;
21235;SDS011;10775;42.678;26.324;2023-07-31T07:06:11;9.85;;;4.88;;
21235;SDS011;10775;42.678;26.324;2023-07-31T07:08:37;8.15;;;4.20;;
21235;SDS011;10775;42.678;26.324;2023-07-31T07:11:02;8.80;;;5.20;;
21235;SDS011;10775;42.678;26.324;2023-07-31T07:13:28;13.73;;;6.88;;
21235;SDS011;10775;42.678;26.324;2023-07-31T07:15:54;11.40;;;6.25;;
21235;SDS011;10775;42.678;26.324;2023-07-31T07:18:19;11.93;;;6.20;;
21235;SDS011;10775;42.678;26.324;2023-07-31T07:20:46;11.25;;;6.35;;
21235;SDS011;10775;42.678;26.324;2023-07-31T07:23:13;15.48;;;8.50;;
21235;SDS011;10775;42.678;26.324;2023-07-31T07:25:38;12.65;;;6.78;;
21235;SDS011;10775;42.678;26.324;2023-07-31T07:28:03;13.15;;;6.95;;
21235;SDS011;10775;42.678;26.324;2023-07-31T07:30:29;13.75;;;7.18;;
21235;SDS011;10775;42.678;26.324;2023-07-31T07:32:54;14.68;;;7.57;;
21235;SDS011;10775;42.678;26.324;2023-07-31T07:35:20;12.55;;;7.28;;
21235;SDS011;10775;42.678;26.324;2023-07-31T07:37:47;20.48;;;9.40;;
21235;SDS011;10775;42.678;26.324;2023-07-31T07:40:14;11.52;;;7.07;;
21235;SDS011;10775;42.678;26.324;2023-07-31T07:42:40;17.38;;;7.82;;
21235;SDS011;10775;42.678;26.324;2023-07-31T07:45:05;14.88;;;7.65;;
21235;SDS011;10775;42.678;26.324;2023-07-31T07:47:32;13.38;;;8.38;;
21235;SDS011;10775;42.678;26.324;2023-07-31T07:49:57;17.27;;;8.85;;
21235;SDS011;10775;42.678;26.324;2023-07-31T07:52:22;19.00;;;9.43;;
21235;SDS011;10775;42.678;26.324;2023-07-31T07:54:48;17.85;;;9.27;;
21235;SDS011;10775;42.678;26.324;2023-07-31T07:57:13;19.85;;;9.55;;
21235;SDS011;10775;42.678;26.324;2023-07-31T07:59:40;17.95;;;8.63;;
21235;SDS011;10775;42.678;26.324;2023-07-31T08:02:06;17.70;;;9.40;;
21235;SDS011;10775;42.678;26.324;2023-07-31T08:04:31;18.55;;;8.63;;
21235;SDS011;10775;42.678;26.324;2023-07-31T08:06:57;12.15;;;7.68;;
21235;SDS011;10775;42.678;26.324;2023-07-31T08:09:22;11.95;;;7.53;;
21235;SDS011;10775;42.678;26.324;2023-07-31T08:11:47;12.90;;;7.57;;
21235;SDS011;10775;42.678;26.324;2023-07-31T08:14:13;19.25;;;8.93;;
21235;SDS011;10775;42.678;26.324;2023-07-31T08:16:39;12.82;;;8.27;;
21235;SDS011;10775;42.678;26.324;2023-07-31T08:19:04;11.48;;;7.75;;
21235;SDS011;10775;42.678;26.324;2023-07-31T08:21:30;12.57;;;8.23;;
21235;SDS011;10775;42.678;26.324;2023-07-31T08:23:56;12.52;;;7.95;;
21235;SDS011;10775;42.678;26.324;2023-07-31T08:26:22;10.73;;;6.93;;
21235;SDS011;10775;42.678;26.324;2023-07-31T08:28:47;13.07;;;7.53;;
21235;SDS011;10775;42.678;26.324;2023-07-31T08:31:13;14.93;;;8.63;;
21235;SDS011;10775;42.678;26.324;2023-07-31T08:33:39;9.73;;;6.70;;
21235;SDS011;10775;42.678;26.324;2023-07-31T08:36:07;10.60;;;7.27;;
21235;SDS011;10775;42.678;26.324;2023-07-31T08:38:33;9.63;;;6.78;;
21235;SDS011;10775;42.678;26.324;2023-07-31T08:40:58;9.55;;;6.78;;
21235;SDS011;10775;42.678;26.324;2023-07-31T08:43:27;11.75;;;7.03;;
21235;SDS011;10775;42.678;26.324;2023-07-31T08:45:53;9.90;;;7.60;;
21235;SDS011;10775;42.678;26.324;2023-07-31T08:48:19;10.68;;;7.30;;
21235;SDS011;10775;42.678;26.324;2023-07-31T08:50:45;8.80;;;7.05;;
21235;SDS011;10775;42.678;26.324;2023-07-31T08:53:11;12.43;;;8.10;;
21235;SDS011;10775;42.678;26.324;2023-07-31T08:55:37;9.85;;;7.60;;
21235;SDS011;10775;42.678;26.324;2023-07-31T08:58:03;8.43;;;6.65;;
21235;SDS011;10775;42.678;26.324;2023-07-31T09:00:30;10.88;;;7.85;;
21235;SDS011;10775;42.678;26.324;2023-07-31T09:03:08;10.20;;;7.38;;
21235;SDS011;10775;42.678;26.324;2023-07-31T09:05:35;7.57;;;6.38;;
21235;SDS011;10775;42.678;26.324;2023-07-31T09:08:02;8.95;;;6.35;;
21235;SDS011;10775;42.678;26.324;2023-07-31T09:10:29;8.55;;;6.75;;
21235;SDS011;10775;42.678;26.324;2023-07-31T09:12:55;10.57;;;7.78;;
21235;SDS011;10775;42.678;26.324;2023-07-31T09:15:21;10.18;;;8.77;;
21235;SDS011;10775;42.678;26.324;2023-07-31T09:17:47;9.10;;;6.60;;
21235;SDS011;10775;42.678;26.324;2023-07-31T09:22:44;9.40;;;7.53;;
21235;SDS011;10775;42.678;26.324;2023-07-31T09:25:17;8.13;;;5.97;;
21235;SDS011;10775;42.678;26.324;2023-07-31T09:27:47;8.77;;;7.32;;
21235;SDS011;10775;42.678;26.324;2023-07-31T09:30:20;6.72;;;6.05;;
21235;SDS011;10775;42.678;26.324;2023-07-31T09:32:47;7.13;;;5.85;;
21235;SDS011;10775;42.678;26.324;2023-07-31T09:35:16;6.95;;;5.57;;
21235;SDS011;10775;42.678;26.324;2023-07-31T09:37:43;7.22;;;5.88;;
21235;SDS011;10775;42.678;26.324;2023-07-31T09:40:09;8.23;;;5.60;;
21235;SDS011;10775;42.678;26.324;2023-07-31T09:42:49;12.82;;;10.07;;
21235;SDS011;10775;42.678;26.324;2023-07-31T09:45:14;7.97;;;6.07;;
21235;SDS011;10775;42.678;26.324;2023-07-31T09:47:45;8.32;;;6.75;;
21235;SDS011;10775;42.678;26.324;2023-07-31T09:50:13;9.05;;;6.15;;
21235;SDS011;10775;42.678;26.324;2023-07-31T09:52:40;8.48;;;7.20;;
21235;SDS011;10775;42.678;26.324;2023-07-31T09:55:05;7.18;;;6.05;;
21235;SDS011;10775;42.678;26.324;2023-07-31T09:57:31;7.55;;;6.45;;
21235;SDS011;10775;42.678;26.324;2023-07-31T09:59:58;8.95;;;6.30;;
21235;SDS011;10775;42.678;26.324;2023-07-31T10:02:23;11.68;;;8.52;;
21235;SDS011;10775;42.678;26.324;2023-07-31T10:04:50;10.27;;;6.45;;
21235;SDS011;10775;42.678;26.324;2023-07-31T10:07:20;8.90;;;6.22;;
21235;SDS011;10775;42.678;26.324;2023-07-31T10:09:48;11.05;;;7.85;;
21235;SDS011;10775;42.678;26.324;2023-07-31T10:12:14;7.80;;;6.53;;
21235;SDS011;10775;42.678;26.324;2023-07-31T10:14:44;7.15;;;6.07;;
21235;SDS011;10775;42.678;26.324;2023-07-31T10:17:09;6.63;;;5.68;;
21235;SDS011;10775;42.678;26.324;2023-07-31T10:19:36;6.28;;;5.40;;
21235;SDS011;10775;42.678;26.324;2023-07-31T10:22:02;8.02;;;6.15;;
21235;SDS011;10775;42.678;26.324;2023-07-31T10:24:28;7.53;;;6.43;;
21235;SDS011;10775;42.678;26.324;2023-07-31T10:26:55;8.68;;;5.63;;
21235;SDS011;10775;42.678;26.324;2023-07-31T10:29:23;8.70;;;5.97;;
21235;SDS011;10775;42.678;26.324;2023-07-31T10:31:50;7.25;;;6.35;;
21235;SDS011;10775;42.678;26.324;2023-07-31T10:34:16;8.20;;;6.82;;
21235;SDS011;10775;42.678;26.324;2023-07-31T10:36:42;7.03;;;5.78;;
21235;SDS011;10775;42.678;26.324;2023-07-31T10:39:33;7.93;;;6.15;;
21235;SDS011;10775;42.678;26.324;2023-07-31T10:42:12;11.73;;;6.90;;
21235;SDS011;10775;42.678;26.324;2023-07-31T10:44:43;8.93;;;7.78;;
21235;SDS011;10775;42.678;26.324;2023-07-31T10:47:09;7.72;;;6.80;;
21235;SDS011;10775;42.678;26.324;2023-07-31T10:49:34;9.02;;;7.53;;
21235;SDS011;10775;42.678;26.324;2023-07-31T10:52:02;25.75;;;7.40;;
21235;SDS011;10775;42.678;26.324;2023-07-31T10:54:28;9.38;;;6.78;;
21235;SDS011;10775;42.678;26.324;2023-07-31T10:56:54;7.57;;;6.68;;
21235;SDS011;10775;42.678;26.324;2023-07-31T10:59:19;9.77;;;6.15;;
21235;SDS011;10775;42.678;26.324;2023-07-31T11:01:55;7.50;;;6.60;;
21235;SDS011;10775;42.678;26.324;2023-07-31T11:04:27;17.25;;;8.15;;
21235;SDS011;10775;42.678;26.324;2023-07-31T11:07:00;6.20;;;5.60;;
21235;SDS011;10775;42.678;26.324;2023-07-31T11:09:29;9.35;;;7.55;;
21235;SDS011;10775;42.678;26.324;2023-07-31T11:11:55;6.60;;;5.75;;
21235;SDS011;10775;42.678;26.324;2023-07-31T11:14:21;7.50;;;6.70;;
21235;SDS011;10775;42.678;26.324;2023-07-31T11:16:49;6.30;;;5.70;;
21235;SDS011;10775;42.678;26.324;2023-07-31T11:19:25;8.88;;;7.25;;
21235;SDS011;10775;42.678;26.324;2023-07-31T11:21:51;7.65;;;6.50;;
21235;SDS011;10775;42.678;26.324;2023-07-31T11:24:18;12.73;;;11.40;;
21235;SDS011;10775;42.678;26.324;2023-07-31T11:26:52;8.68;;;6.78;;
21235;SDS011;10775;42.678;26.324;2023-07-31T11:29:18;7.68;;;6.55;;
21235;SDS011;10775;42.678;26.324;2023-07-31T11:31:45;9.07;;;6.53;;
21235;SDS011;10775;42.678;26.324;2023-07-31T11:34:11;10.40;;;8.80;;
21235;SDS011;10775;42.678;26.324;2023-07-31T11:36:37;9.05;;;7.38;;
21235;SDS011;10775;42.678;26.324;2023-07-31T11:39:07;7.43;;;5.90;;
21235;SDS011;10775;42.678;26.324;2023-07-31T11:41:34;10.02;;;8.20;;
21235;SDS011;10775;42.678;26.324;2023-07-31T11:44:00;7.70;;;6.90;;
21235;SDS011;10775;42.678;26.324;2023-07-31T11:46:26;9.35;;;8.18;;
21235;SDS011;10775;42.678;26.324;2023-07-31T11:48:51;9.43;;;6.95;;
21235;SDS011;10775;42.678;26.324;2023-07-31T11:51:17;7.80;;;7.00;;
21235;SDS011;10775;42.678;26.324;2023-07-31T11:53:50;9.05;;;6.60;;
21235;SDS011;10775;42.678;26.324;2023-07-31T11:56:18;7.43;;;6.22;;
21235;SDS011;10775;42.678;26.324;2023-07-31T11:58:46;6.78;;;5.40;;
21235;SDS011;10775;42.678;26.324;2023-07-31T12:01:15;7.15;;;6.15;;
21235;SDS011;10775;42.678;26.324;2023-07-31T12:03:44;9.80;;;7.55;;
21235;SDS011;10775;42.678;26.324;2023-07-31T12:06:10;9.30;;;5.70;;
21235;SDS011;10775;42.678;26.324;2023-07-31T12:08:36;11.60;;;9.02;;
21235;SDS011;10775;42.678;26.324;2023-07-31T12:11:05;7.65;;;6.03;;
21235;SDS011;10775;42.678;26.324;2023-07-31T12:15:59;9.13;;;5.93;;
21235;SDS011;10775;42.678;26.324;2023-07-31T12:18:27;10.00;;;8.70;;
21235;SDS011;10775;42.678;26.324;2023-07-31T12:21:00;11.40;;;8.25;;
21235;SDS011;10775;42.678;26.324;2023-07-31T12:23:27;11.73;;;9.18;;
21235;SDS011;10775;42.678;26.324;2023-07-31T12:28:29;9.02;;;6.60;;
21235;SDS011;10775;42.678;26.324;2023-07-31T12:30:59;7.90;;;6.78;;
21235;SDS011;10775;42.678;26.324;2023-07-31T12:33:32;11.15;;;8.20;;
21235;SDS011;10775;42.678;26.324;2023-07-31T12:36:00;8.68;;;7.40;;
21235;SDS011;10775;42.678;26.324;2023-07-31T12:38:27;10.88;;;8.95;;
21235;SDS011;10775;42.678;26.324;2023-07-31T12:40:53;9.65;;;8.65;;
21235;SDS011;10775;42.678;26.324;2023-07-31T12:43:18;10.63;;;8.10;;
21235;SDS011;10775;42.678;26.324;2023-07-31T12:45:44;11.45;;;8.52;;
21235;SDS011;10775;42.678;26.324;2023-07-31T12:48:09;10.57;;;8.98;;
21235;SDS011;10775;42.678;26.324;2023-07-31T12:50:34;9.75;;;8.40;;
21235;SDS011;10775;42.678;26.324;2023-07-31T12:53:01;9.43;;;7.57;;
21235;SDS011;10775;42.678;26.324;2023-07-31T12:55:28;9.18;;;7.03;;
21235;SDS011;10775;42.678;26.324;2023-07-31T12:57:55;7.78;;;6.95;;
21235;SDS011;10775;42.678;26.324;2023-07-31T13:00:21;9.35;;;7.38;;
21235;SDS011;10775;42.678;26.324;2023-07-31T13:02:47;8.27;;;7.38;;
21235;SDS011;10775;42.678;26.324;2023-07-31T13:05:12;12.27;;;9.00;;
21235;SDS011;10775;42.678;26.324;2023-07-31T13:07:38;9.32;;;8.27;;
21235;SDS011;10775;42.678;26.324;2023-07-31T13:10:04;10.90;;;7.80;;
21235;SDS011;10775;42.678;26.324;2023-07-31T13:12:31;11.10;;;8.20;;
21235;SDS011;10775;42.678;26.324;2023-07-31T13:14:56;13.13;;;9.25;;
21235;SDS011;10775;42.678;26.324;2023-07-31T13:17:22;9.65;;;8.00;;
21235;SDS011;10775;42.678;26.324;2023-07-31T13:19:48;9.75;;;8.75;;
21235;SDS011;10775;42.678;26.324;2023-07-31T13:22:13;8.48;;;7.20;;
21235;SDS011;10775;42.678;26.324;2023-07-31T13:24:38;10.80;;;7.40;;
21235;SDS011;10775;42.678;26.324;2023-07-31T13:27:04;11.50;;;9.07;;
21235;SDS011;10775;42.678;26.324;2023-07-31T13:29:29;9.70;;;8.70;;
21235;SDS011;10775;42.678;26.324;2023-07-31T13:31:55;9.55;;;8.57;;
21235;SDS011;10775;42.678;26.324;2023-07-31T13:34:21;9.23;;;7.82;;
21235;SDS011;10775;42.678;26.324;2023-07-31T13:36:46;12.35;;;9.32;;
21235;SDS011;10775;42.678;26.324;2023-07-31T13:39:11;9.23;;;8.32;;
21235;SDS011;10775;42.678;26.324;2023-07-31T13:41:37;10.95;;;8.65;;
21235;SDS011;10775;42.678;26.324;2023-07-31T13:44:03;8.02;;;7.10;;
21235;SDS011;10775;42.678;26.324;2023-07-31T13:46:28;11.30;;;8.95;;
21235;SDS011;10775;42.678;26.324;2023-07-31T13:48:54;9.73;;;8.20;;
21235;SDS011;10775;42.678;26.324;2023-07-31T13:51:21;9.73;;;8.27;;
21235;SDS011;10775;42.678;26.324;2023-07-31T13:53:46;9.23;;;8.27;;
21235;SDS011;10775;42.678;26.324;2023-07-31T13:56:12;10.10;;;8.48;;
21235;SDS011;10775;42.678;26.324;2023-07-31T13:58:38;11.63;;;8.13;;
21235;SDS011;10775;42.678;26.324;2023-07-31T14:01:03;10.85;;;8.75;;
21235;SDS011;10775;42.678;26.324;2023-07-31T14:03:29;8.88;;;7.97;;
21235;SDS011;10775;42.678;26.324;2023-07-31T14:05:54;9.55;;;8.25;;
21235;SDS011;10775;42.678;26.324;2023-07-31T14:08:20;9.48;;;8.38;;
21235;SDS011;10775;42.678;26.324;2023-07-31T14:10:46;11.93;;;9.10;;
21235;SDS011;10775;42.678;26.324;2023-07-31T14:13:12;10.95;;;8.18;;
21235;SDS011;10775;42.678;26.324;2023-07-31T14:15:37;9.82;;;8.82;;
21235;SDS011;10775;42.678;26.324;2023-07-31T14:18:03;9.93;;;8.82;;
21235;SDS011;10775;42.678;26.324;2023-07-31T14:20:28;10.75;;;9.23;;
21235;SDS011;10775;42.678;26.324;2023-07-31T14:22:55;8.70;;;6.85;;
21235;SDS011;10775;42.678;26.324;2023-07-31T14:25:20;7.78;;;6.78;;
21235;SDS011;10775;42.678;26.324;2023-07-31T14:27:46;25.98;;;18.08;;
21235;SDS011;10775;42.678;26.324;2023-07-31T14:30:12;7.53;;;6.82;;
21235;SDS011;10775;42.678;26.324;2023-07-31T14:32:37;9.48;;;7.93;;
21235;SDS011;10775;42.678;26.324;2023-07-31T14:35:03;9.73;;;7.22;;
21235;SDS011;10775;42.678;26.324;2023-07-31T14:37:36;9.05;;;8.18;;
21235;SDS011;10775;42.678;26.324;2023-07-31T14:40:05;7.93;;;7.10;;